Nevis, Minnesota
Current Conditions -  °F | °C
As of 11:53 PM on Wednesday 28 Jan 2015 (Local Time) from KPKD Reporting Station
Overcast Overcast  
Wind Chill: 20°   Ceiling: 900
Heat Index: 31°   Visibility: 10mi
Dew Point: 29°   Wind: 16mph
Humidity: 92%   Direction: 330°NNW
Pressure: 29.91"   Gusts: NA
Location:  46.97°N, 94.84°W
Report Text: KPKD 290553Z AUTO 33014KT 10SM OVC009 M01/M02 A2991 RMK AO2 SNE04B29E41 CIG 007V013 SLP147 P0000 60000 I6005 T10061017 10006 21006 400061006 53017
Loading
Personal Weather Stations






























Interactive Weather Map New forecast layout! Learn more

10-Day Weather Forecast

Advertisements
Track Severe Weather on mobile